sensor_id;sensor_type;location;lat;lon;timestamp;P1;durP1;ratioP1;P2;durP2;ratioP2
74894;SDS011;63447;49.446;8.666;2022-12-15T00:00:53;24.73;;;13.75;;
74894;SDS011;63447;49.446;8.666;2022-12-15T00:03:37;26.95;;;13.18;;
74894;SDS011;63447;49.446;8.666;2022-12-15T00:09:05;25.80;;;13.00;;
74894;SDS011;63447;49.446;8.666;2022-12-15T00:11:49;25.90;;;14.18;;
74894;SDS011;63447;49.446;8.666;2022-12-15T00:14:33;24.75;;;13.00;;
74894;SDS011;63447;49.446;8.666;2022-12-15T00:17:17;25.90;;;13.45;;
74894;SDS011;63447;49.446;8.666;2022-12-15T00:20:01;25.00;;;12.77;;
74894;SDS011;63447;49.446;8.666;2022-12-15T00:22:46;24.73;;;12.82;;
74894;SDS011;63447;49.446;8.666;2022-12-15T00:25:32;24.48;;;12.65;;
74894;SDS011;63447;49.446;8.666;2022-12-15T00:28:16;26.02;;;13.10;;
74894;SDS011;63447;49.446;8.666;2022-12-15T00:31:03;24.63;;;13.07;;
74894;SDS011;63447;49.446;8.666;2022-12-15T00:33:49;24.60;;;11.70;;
74894;SDS011;63447;49.446;8.666;2022-12-15T00:36:33;27.00;;;13.68;;
74894;SDS011;63447;49.446;8.666;2022-12-15T00:39:20;28.23;;;13.30;;
74894;SDS011;63447;49.446;8.666;2022-12-15T00:41:45;23.27;;;13.43;;
74894;SDS011;63447;49.446;8.666;2022-12-15T00:44:13;23.47;;;12.93;;
74894;SDS011;63447;49.446;8.666;2022-12-15T00:46:41;25.10;;;13.77;;
74894;SDS011;63447;49.446;8.666;2022-12-15T00:49:18;24.38;;;13.82;;
74894;SDS011;63447;49.446;8.666;2022-12-15T00:52:03;28.75;;;14.38;;
74894;SDS011;63447;49.446;8.666;2022-12-15T00:54:47;26.13;;;14.45;;
74894;SDS011;63447;49.446;8.666;2022-12-15T00:57:31;27.20;;;14.40;;
74894;SDS011;63447;49.446;8.666;2022-12-15T01:00:16;25.27;;;13.77;;
74894;SDS011;63447;49.446;8.666;2022-12-15T01:02:59;27.75;;;15.32;;
74894;SDS011;63447;49.446;8.666;2022-12-15T01:05:44;26.70;;;13.90;;
74894;SDS011;63447;49.446;8.666;2022-12-15T01:08:27;26.38;;;13.82;;
74894;SDS011;63447;49.446;8.666;2022-12-15T01:11:11;26.60;;;13.95;;
74894;SDS011;63447;49.446;8.666;2022-12-15T01:13:58;26.63;;;14.50;;
74894;SDS011;63447;49.446;8.666;2022-12-15T01:16:42;26.15;;;14.57;;
74894;SDS011;63447;49.446;8.666;2022-12-15T01:19:26;24.80;;;13.38;;
74894;SDS011;63447;49.446;8.666;2022-12-15T01:22:10;24.35;;;13.93;;
74894;SDS011;63447;49.446;8.666;2022-12-15T01:24:35;26.80;;;14.50;;
74894;SDS011;63447;49.446;8.666;2022-12-15T01:27:05;26.58;;;13.80;;
74894;SDS011;63447;49.446;8.666;2022-12-15T01:29:30;23.63;;;12.52;;
74894;SDS011;63447;49.446;8.666;2022-12-15T01:31:56;25.93;;;14.20;;
74894;SDS011;63447;49.446;8.666;2022-12-15T01:34:21;27.53;;;14.40;;
74894;SDS011;63447;49.446;8.666;2022-12-15T01:36:49;24.25;;;13.10;;
74894;SDS011;63447;49.446;8.666;2022-12-15T01:39:17;27.10;;;13.90;;
74894;SDS011;63447;49.446;8.666;2022-12-15T01:41:42;24.80;;;13.97;;
74894;SDS011;63447;49.446;8.666;2022-12-15T01:44:15;29.20;;;14.50;;
74894;SDS011;63447;49.446;8.666;2022-12-15T01:46:45;29.25;;;15.13;;
74894;SDS011;63447;49.446;8.666;2022-12-15T01:51:50;26.02;;;13.65;;
74894;SDS011;63447;49.446;8.666;2022-12-15T01:54:27;25.98;;;14.40;;
74894;SDS011;63447;49.446;8.666;2022-12-15T01:57:05;24.23;;;11.50;;
74894;SDS011;63447;49.446;8.666;2022-12-15T01:59:34;27.17;;;14.35;;
74894;SDS011;63447;49.446;8.666;2022-12-15T02:02:03;23.45;;;13.18;;
74894;SDS011;63447;49.446;8.666;2022-12-15T02:04:31;26.73;;;13.93;;
74894;SDS011;63447;49.446;8.666;2022-12-15T02:09:25;23.00;;;13.23;;
74894;SDS011;63447;49.446;8.666;2022-12-15T02:14:57;26.75;;;13.82;;
74894;SDS011;63447;49.446;8.666;2022-12-15T02:31:30;25.50;;;13.82;;
74894;SDS011;63447;49.446;8.666;2022-12-15T02:36:55;25.98;;;13.90;;
74894;SDS011;63447;49.446;8.666;2022-12-15T02:39:24;28.52;;;15.30;;
74894;SDS011;63447;49.446;8.666;2022-12-15T02:41:50;24.45;;;13.32;;
74894;SDS011;63447;49.446;8.666;2022-12-15T02:46:53;27.08;;;13.95;;
74894;SDS011;63447;49.446;8.666;2022-12-15T02:57:23;25.27;;;13.30;;
74894;SDS011;63447;49.446;8.666;2022-12-15T02:59:59;25.33;;;13.77;;
74894;SDS011;63447;49.446;8.666;2022-12-15T03:02:28;25.83;;;14.50;;
74894;SDS011;63447;49.446;8.666;2022-12-15T03:04:56;25.90;;;14.00;;
74894;SDS011;63447;49.446;8.666;2022-12-15T03:07:24;27.40;;;14.30;;
74894;SDS011;63447;49.446;8.666;2022-12-15T03:09:54;27.17;;;14.90;;
74894;SDS011;63447;49.446;8.666;2022-12-15T03:12:21;26.23;;;14.13;;
74894;SDS011;63447;49.446;8.666;2022-12-15T03:14:46;26.63;;;13.57;;
74894;SDS011;63447;49.446;8.666;2022-12-15T03:17:12;26.57;;;12.83;;
74894;SDS011;63447;49.446;8.666;2022-12-15T03:19:40;26.77;;;13.30;;
74894;SDS011;63447;49.446;8.666;2022-12-15T03:22:12;24.80;;;13.18;;
74894;SDS011;63447;49.446;8.666;2022-12-15T03:24:40;26.30;;;14.57;;
74894;SDS011;63447;49.446;8.666;2022-12-15T03:27:05;25.30;;;12.23;;
74894;SDS011;63447;49.446;8.666;2022-12-15T03:29:35;29.73;;;13.88;;
74894;SDS011;63447;49.446;8.666;2022-12-15T03:32:04;26.95;;;14.65;;
74894;SDS011;63447;49.446;8.666;2022-12-15T03:34:32;28.35;;;13.77;;
74894;SDS011;63447;49.446;8.666;2022-12-15T03:36:57;25.33;;;14.48;;
74894;SDS011;63447;49.446;8.666;2022-12-15T03:39:23;30.88;;;15.27;;
74894;SDS011;63447;49.446;8.666;2022-12-15T03:41:50;26.70;;;13.80;;
74894;SDS011;63447;49.446;8.666;2022-12-15T03:44:16;28.03;;;14.20;;
74894;SDS011;63447;49.446;8.666;2022-12-15T03:46:45;25.35;;;14.32;;
74894;SDS011;63447;49.446;8.666;2022-12-15T03:49:18;28.05;;;15.52;;
74894;SDS011;63447;49.446;8.666;2022-12-15T03:51:46;28.00;;;14.77;;
74894;SDS011;63447;49.446;8.666;2022-12-15T03:54:12;26.83;;;14.63;;
74894;SDS011;63447;49.446;8.666;2022-12-15T03:59:03;29.40;;;14.57;;
74894;SDS011;63447;49.446;8.666;2022-12-15T04:01:29;30.40;;;15.80;;
74894;SDS011;63447;49.446;8.666;2022-12-15T04:03:56;30.27;;;15.30;;
74894;SDS011;63447;49.446;8.666;2022-12-15T04:08:50;26.63;;;14.82;;
74894;SDS011;63447;49.446;8.666;2022-12-15T04:11:16;28.85;;;14.80;;
74894;SDS011;63447;49.446;8.666;2022-12-15T04:13:45;30.85;;;15.10;;
74894;SDS011;63447;49.446;8.666;2022-12-15T04:16:12;27.33;;;13.52;;
74894;SDS011;63447;49.446;8.666;2022-12-15T04:18:40;29.27;;;15.05;;
74894;SDS011;63447;49.446;8.666;2022-12-15T04:21:05;25.07;;;13.87;;
74894;SDS011;63447;49.446;8.666;2022-12-15T04:23:31;26.90;;;14.17;;
74894;SDS011;63447;49.446;8.666;2022-12-15T04:25:56;28.83;;;15.27;;
74894;SDS011;63447;49.446;8.666;2022-12-15T04:28:42;29.15;;;14.10;;
74894;SDS011;63447;49.446;8.666;2022-12-15T04:31:29;25.65;;;14.15;;
74894;SDS011;63447;49.446;8.666;2022-12-15T04:34:18;30.05;;;15.02;;
74894;SDS011;63447;49.446;8.666;2022-12-15T04:37:10;31.73;;;15.57;;
74894;SDS011;63447;49.446;8.666;2022-12-15T04:39:56;26.80;;;14.20;;
74894;SDS011;63447;49.446;8.666;2022-12-15T04:42:42;30.27;;;15.27;;
74894;SDS011;63447;49.446;8.666;2022-12-15T04:45:29;27.40;;;14.15;;
74894;SDS011;63447;49.446;8.666;2022-12-15T04:48:13;24.75;;;14.02;;
74894;SDS011;63447;49.446;8.666;2022-12-15T04:50:57;28.02;;;14.15;;
74894;SDS011;63447;49.446;8.666;2022-12-15T04:53:42;28.55;;;15.50;;
74894;SDS011;63447;49.446;8.666;2022-12-15T04:56:30;27.60;;;14.60;;
74894;SDS011;63447;49.446;8.666;2022-12-15T04:59:14;28.63;;;14.90;;
74894;SDS011;63447;49.446;8.666;2022-12-15T05:01:58;27.23;;;14.20;;
74894;SDS011;63447;49.446;8.666;2022-12-15T05:04:44;28.83;;;16.02;;
74894;SDS011;63447;49.446;8.666;2022-12-15T05:07:28;30.02;;;15.65;;
74894;SDS011;63447;49.446;8.666;2022-12-15T05:10:15;31.90;;;15.07;;
74894;SDS011;63447;49.446;8.666;2022-12-15T05:13:07;26.48;;;12.52;;
74894;SDS011;63447;49.446;8.666;2022-12-15T05:15:53;29.60;;;15.55;;
74894;SDS011;63447;49.446;8.666;2022-12-15T05:18:37;28.05;;;13.32;;
74894;SDS011;63447;49.446;8.666;2022-12-15T05:21:22;28.30;;;15.00;;
74894;SDS011;63447;49.446;8.666;2022-12-15T05:24:06;31.58;;;15.95;;
74894;SDS011;63447;49.446;8.666;2022-12-15T05:26:50;26.60;;;13.73;;
74894;SDS011;63447;49.446;8.666;2022-12-15T05:29:36;30.33;;;15.27;;
74894;SDS011;63447;49.446;8.666;2022-12-15T05:32:23;27.15;;;14.27;;
74894;SDS011;63447;49.446;8.666;2022-12-15T05:34:48;26.75;;;14.57;;
74894;SDS011;63447;49.446;8.666;2022-12-15T05:37:13;27.38;;;14.35;;
74894;SDS011;63447;49.446;8.666;2022-12-15T05:39:41;27.15;;;14.90;;
74894;SDS011;63447;49.446;8.666;2022-12-15T05:42:06;28.42;;;15.50;;
74894;SDS011;63447;49.446;8.666;2022-12-15T05:44:34;27.05;;;14.32;;
74894;SDS011;63447;49.446;8.666;2022-12-15T05:47:02;31.52;;;15.60;;
74894;SDS011;63447;49.446;8.666;2022-12-15T05:49:28;25.98;;;14.63;;
74894;SDS011;63447;49.446;8.666;2022-12-15T05:51:54;26.67;;;14.18;;
74894;SDS011;63447;49.446;8.666;2022-12-15T05:54:21;28.98;;;14.88;;
74894;SDS011;63447;49.446;8.666;2022-12-15T05:56:47;27.63;;;15.40;;
74894;SDS011;63447;49.446;8.666;2022-12-15T05:59:12;32.80;;;16.58;;
74894;SDS011;63447;49.446;8.666;2022-12-15T06:04:06;25.80;;;13.05;;
74894;SDS011;63447;49.446;8.666;2022-12-15T06:06:33;24.13;;;12.93;;
74894;SDS011;63447;49.446;8.666;2022-12-15T06:08:58;25.02;;;13.88;;
74894;SDS011;63447;49.446;8.666;2022-12-15T06:11:24;25.73;;;13.87;;
74894;SDS011;63447;49.446;8.666;2022-12-15T06:13:51;28.65;;;14.57;;
74894;SDS011;63447;49.446;8.666;2022-12-15T06:16:20;27.05;;;12.43;;
74894;SDS011;63447;49.446;8.666;2022-12-15T06:18:48;26.27;;;14.57;;
74894;SDS011;63447;49.446;8.666;2022-12-15T06:21:18;26.08;;;14.90;;
74894;SDS011;63447;49.446;8.666;2022-12-15T06:23:48;28.75;;;14.98;;
74894;SDS011;63447;49.446;8.666;2022-12-15T06:26:26;28.00;;;14.52;;
74894;SDS011;63447;49.446;8.666;2022-12-15T06:31:21;27.08;;;14.52;;
74894;SDS011;63447;49.446;8.666;2022-12-15T06:33:47;31.15;;;15.52;;
74894;SDS011;63447;49.446;8.666;2022-12-15T06:36:14;25.95;;;13.88;;
74894;SDS011;63447;49.446;8.666;2022-12-15T06:38:43;29.10;;;14.45;;
74894;SDS011;63447;49.446;8.666;2022-12-15T06:41:09;29.35;;;14.93;;
74894;SDS011;63447;49.446;8.666;2022-12-15T06:43:36;28.70;;;14.23;;
74894;SDS011;63447;49.446;8.666;2022-12-15T06:46:02;34.17;;;16.90;;
74894;SDS011;63447;49.446;8.666;2022-12-15T06:48:28;31.65;;;15.60;;
74894;SDS011;63447;49.446;8.666;2022-12-15T06:51:00;31.75;;;16.33;;
74894;SDS011;63447;49.446;8.666;2022-12-15T06:53:30;29.13;;;15.68;;
74894;SDS011;63447;49.446;8.666;2022-12-15T06:56:06;28.25;;;15.85;;
74894;SDS011;63447;49.446;8.666;2022-12-15T06:58:41;27.38;;;14.65;;
74894;SDS011;63447;49.446;8.666;2022-12-15T07:01:09;25.88;;;14.75;;
74894;SDS011;63447;49.446;8.666;2022-12-15T07:03:35;29.15;;;15.20;;
74894;SDS011;63447;49.446;8.666;2022-12-15T07:06:05;25.90;;;14.20;;
74894;SDS011;63447;49.446;8.666;2022-12-15T07:08:34;25.25;;;13.65;;
74894;SDS011;63447;49.446;8.666;2022-12-15T07:11:03;27.15;;;14.15;;
74894;SDS011;63447;49.446;8.666;2022-12-15T07:13:32;40.70;;;20.50;;
74894;SDS011;63447;49.446;8.666;2022-12-15T07:16:01;36.95;;;19.63;;
74894;SDS011;63447;49.446;8.666;2022-12-15T07:18:28;29.90;;;15.10;;
74894;SDS011;63447;49.446;8.666;2022-12-15T07:20:54;31.70;;;15.90;;
74894;SDS011;63447;49.446;8.666;2022-12-15T07:23:23;33.17;;;16.60;;
74894;SDS011;63447;49.446;8.666;2022-12-15T07:25:48;30.17;;;16.02;;
74894;SDS011;63447;49.446;8.666;2022-12-15T07:28:14;28.53;;;15.17;;
74894;SDS011;63447;49.446;8.666;2022-12-15T07:30:41;31.55;;;15.77;;
74894;SDS011;63447;49.446;8.666;2022-12-15T07:33:07;29.83;;;14.97;;
74894;SDS011;63447;49.446;8.666;2022-12-15T07:35:32;31.13;;;15.63;;
74894;SDS011;63447;49.446;8.666;2022-12-15T07:38:03;30.38;;;14.75;;
74894;SDS011;63447;49.446;8.666;2022-12-15T07:40:30;27.55;;;13.48;;
74894;SDS011;63447;49.446;8.666;2022-12-15T07:42:56;26.30;;;14.20;;
74894;SDS011;63447;49.446;8.666;2022-12-15T07:45:24;31.83;;;16.63;;
74894;SDS011;63447;49.446;8.666;2022-12-15T07:47:49;34.27;;;17.27;;
74894;SDS011;63447;49.446;8.666;2022-12-15T07:50:15;31.45;;;16.98;;
74894;SDS011;63447;49.446;8.666;2022-12-15T07:52:43;31.85;;;16.40;;
74894;SDS011;63447;49.446;8.666;2022-12-15T07:55:12;27.30;;;14.93;;
74894;SDS011;63447;49.446;8.666;2022-12-15T07:57:43;32.85;;;17.48;;
74894;SDS011;63447;49.446;8.666;2022-12-15T08:00:18;28.90;;;15.38;;
74894;SDS011;63447;49.446;8.666;2022-12-15T08:02:48;30.50;;;16.60;;
74894;SDS011;63447;49.446;8.666;2022-12-15T08:05:16;30.75;;;15.68;;
74894;SDS011;63447;49.446;8.666;2022-12-15T08:07:44;29.90;;;15.35;;
74894;SDS011;63447;49.446;8.666;2022-12-15T08:10:11;27.00;;;14.80;;
74894;SDS011;63447;49.446;8.666;2022-12-15T08:12:39;29.58;;;13.10;;
74894;SDS011;63447;49.446;8.666;2022-12-15T08:15:07;29.10;;;15.77;;
74894;SDS011;63447;49.446;8.666;2022-12-15T08:17:33;32.78;;;16.88;;
74894;SDS011;63447;49.446;8.666;2022-12-15T08:19:59;30.58;;;15.90;;
74894;SDS011;63447;49.446;8.666;2022-12-15T08:22:27;29.73;;;15.27;;
74894;SDS011;63447;49.446;8.666;2022-12-15T08:24:52;32.87;;;16.30;;
74894;SDS011;63447;49.446;8.666;2022-12-15T08:27:18;30.27;;;16.20;;
74894;SDS011;63447;49.446;8.666;2022-12-15T08:29:44;50.22;;;27.55;;
74894;SDS011;63447;49.446;8.666;2022-12-15T08:32:09;34.10;;;17.70;;
74894;SDS011;63447;49.446;8.666;2022-12-15T08:34:40;32.95;;;15.68;;
74894;SDS011;63447;49.446;8.666;2022-12-15T08:37:06;27.70;;;14.43;;
74894;SDS011;63447;49.446;8.666;2022-12-15T08:39:34;26.10;;;14.13;;
74894;SDS011;63447;49.446;8.666;2022-12-15T08:42:05;28.13;;;16.42;;
74894;SDS011;63447;49.446;8.666;2022-12-15T08:44:31;23.35;;;13.40;;
74894;SDS011;63447;49.446;8.666;2022-12-15T08:46:56;26.97;;;14.27;;
74894;SDS011;63447;49.446;8.666;2022-12-15T08:49:24;29.40;;;14.73;;
74894;SDS011;63447;49.446;8.666;2022-12-15T08:51:54;25.70;;;14.05;;
74894;SDS011;63447;49.446;8.666;2022-12-15T08:54:20;29.98;;;16.30;;
74894;SDS011;63447;49.446;8.666;2022-12-15T08:56:45;26.92;;;15.13;;
74894;SDS011;63447;49.446;8.666;2022-12-15T08:59:15;23.52;;;12.73;;
74894;SDS011;63447;49.446;8.666;2022-12-15T09:01:43;25.73;;;14.30;;
74894;SDS011;63447;49.446;8.666;2022-12-15T09:04:11;24.42;;;13.40;;
74894;SDS011;63447;49.446;8.666;2022-12-15T09:06:37;23.93;;;12.70;;
74894;SDS011;63447;49.446;8.666;2022-12-15T09:09:05;24.23;;;13.30;;
74894;SDS011;63447;49.446;8.666;2022-12-15T09:11:32;25.52;;;13.32;;
74894;SDS011;63447;49.446;8.666;2022-12-15T09:13:57;26.58;;;14.15;;
74894;SDS011;63447;49.446;8.666;2022-12-15T09:16:25;24.85;;;13.48;;
74894;SDS011;63447;49.446;8.666;2022-12-15T09:18:55;24.00;;;14.13;;
74894;SDS011;63447;49.446;8.666;2022-12-15T09:21:23;24.98;;;13.20;;
74894;SDS011;63447;49.446;8.666;2022-12-15T09:23:54;20.90;;;11.88;;
74894;SDS011;63447;49.446;8.666;2022-12-15T09:26:28;27.75;;;14.98;;
74894;SDS011;63447;49.446;8.666;2022-12-15T09:28:55;24.02;;;14.50;;
74894;SDS011;63447;49.446;8.666;2022-12-15T09:31:22;24.00;;;13.98;;
74894;SDS011;63447;49.446;8.666;2022-12-15T09:33:52;24.90;;;13.20;;
74894;SDS011;63447;49.446;8.666;2022-12-15T09:36:19;24.38;;;14.95;;
74894;SDS011;63447;49.446;8.666;2022-12-15T09:38:48;22.52;;;13.07;;
74894;SDS011;63447;49.446;8.666;2022-12-15T09:43:55;23.52;;;13.70;;
74894;SDS011;63447;49.446;8.666;2022-12-15T09:46:36;23.35;;;13.68;;
74894;SDS011;63447;49.446;8.666;2022-12-15T09:49:14;24.63;;;14.73;;
74894;SDS011;63447;49.446;8.666;2022-12-15T09:51:53;22.35;;;14.40;;
74894;SDS011;63447;49.446;8.666;2022-12-15T09:54:41;22.50;;;14.45;;
74894;SDS011;63447;49.446;8.666;2022-12-15T09:57:17;21.08;;;13.52;;
74894;SDS011;63447;49.446;8.666;2022-12-15T10:00:30;25.48;;;15.15;;
74894;SDS011;63447;49.446;8.666;2022-12-15T10:08:36;22.85;;;14.20;;
74894;SDS011;63447;49.446;8.666;2022-12-15T10:11:15;22.67;;;14.23;;
74894;SDS011;63447;49.446;8.666;2022-12-15T10:19:10;23.75;;;14.82;;
74894;SDS011;63447;49.446;8.666;2022-12-15T10:21:45;23.52;;;14.45;;
74894;SDS011;63447;49.446;8.666;2022-12-15T10:26:47;26.90;;;16.55;;
74894;SDS011;63447;49.446;8.666;2022-12-15T10:31:59;24.80;;;16.27;;
74894;SDS011;63447;49.446;8.666;2022-12-15T10:34:32;26.15;;;15.35;;
74894;SDS011;63447;49.446;8.666;2022-12-15T10:37:04;26.70;;;16.33;;
74894;SDS011;63447;49.446;8.666;2022-12-15T10:39:37;27.40;;;16.45;;
74894;SDS011;63447;49.446;8.666;2022-12-15T10:42:10;24.42;;;16.10;;
74894;SDS011;63447;49.446;8.666;2022-12-15T10:44:53;23.73;;;15.10;;
74894;SDS011;63447;49.446;8.666;2022-12-15T10:47:23;25.42;;;15.93;;
74894;SDS011;63447;49.446;8.666;2022-12-15T10:49:53;26.38;;;16.15;;
74894;SDS011;63447;49.446;8.666;2022-12-15T10:52:30;24.90;;;15.88;;
74894;SDS011;63447;49.446;8.666;2022-12-15T10:54:58;27.38;;;17.17;;
74894;SDS011;63447;49.446;8.666;2022-12-15T10:57:25;27.92;;;17.13;;
74894;SDS011;63447;49.446;8.666;2022-12-15T10:59:57;25.70;;;16.05;;
74894;SDS011;63447;49.446;8.666;2022-12-15T11:02:53;26.23;;;15.52;;
74894;SDS011;63447;49.446;8.666;2022-12-15T11:05:19;25.13;;;16.02;;
74894;SDS011;63447;49.446;8.666;2022-12-15T11:07:50;23.67;;;16.15;;
74894;SDS011;63447;49.446;8.666;2022-12-15T11:10:24;23.70;;;16.23;;
74894;SDS011;63447;49.446;8.666;2022-12-15T11:13:18;23.92;;;16.38;;
74894;SDS011;63447;49.446;8.666;2022-12-15T11:18:35;24.48;;;15.80;;
74894;SDS011;63447;49.446;8.666;2022-12-15T11:23:40;21.20;;;13.85;;
74894;SDS011;63447;49.446;8.666;2022-12-15T11:29:20;25.35;;;15.70;;
74894;SDS011;63447;49.446;8.666;2022-12-15T11:31:48;25.65;;;15.23;;
74894;SDS011;63447;49.446;8.666;2022-12-15T11:34:21;23.55;;;15.43;;
74894;SDS011;63447;49.446;8.666;2022-12-15T11:48:31;28.13;;;16.55;;
74894;SDS011;63447;49.446;8.666;2022-12-15T12:04:26;28.92;;;16.08;;
74894;SDS011;63447;49.446;8.666;2022-12-15T12:07:06;28.52;;;16.50;;
74894;SDS011;63447;49.446;8.666;2022-12-15T12:09:42;28.83;;;16.90;;
74894;SDS011;63447;49.446;8.666;2022-12-15T12:15:29;25.75;;;15.43;;
74894;SDS011;63447;49.446;8.666;2022-12-15T12:21:07;30.98;;;15.70;;
74894;SDS011;63447;49.446;8.666;2022-12-15T12:28:46;28.88;;;17.05;;
74894;SDS011;63447;49.446;8.666;2022-12-15T12:31:32;29.02;;;18.75;;
74894;SDS011;63447;49.446;8.666;2022-12-15T12:34:00;27.35;;;15.73;;
74894;SDS011;63447;49.446;8.666;2022-12-15T12:36:35;28.23;;;15.95;;
74894;SDS011;63447;49.446;8.666;2022-12-15T12:39:01;26.67;;;15.40;;
74894;SDS011;63447;49.446;8.666;2022-12-15T12:44:34;31.67;;;17.02;;
74894;SDS011;63447;49.446;8.666;2022-12-15T12:47:08;31.35;;;17.58;;
74894;SDS011;63447;49.446;8.666;2022-12-15T12:49:46;31.98;;;17.35;;
74894;SDS011;63447;49.446;8.666;2022-12-15T12:54:58;29.92;;;16.48;;
74894;SDS011;63447;49.446;8.666;2022-12-15T12:57:32;35.08;;;18.08;;
74894;SDS011;63447;49.446;8.666;2022-12-15T13:08:44;39.70;;;20.42;;
74894;SDS011;63447;49.446;8.666;2022-12-15T13:10:39;36.88;;;18.55;;
74894;SDS011;63447;49.446;8.666;2022-12-15T13:16:01;37.72;;;18.67;;
74894;SDS011;63447;49.446;8.666;2022-12-15T13:24:51;35.50;;;18.30;;
74894;SDS011;63447;49.446;8.666;2022-12-15T13:34:53;37.55;;;18.23;;
74894;SDS011;63447;49.446;8.666;2022-12-15T13:40:57;35.22;;;18.73;;
74894;SDS011;63447;49.446;8.666;2022-12-15T13:48:07;35.17;;;17.88;;
74894;SDS011;63447;49.446;8.666;2022-12-15T13:56:24;32.00;;;15.38;;
74894;SDS011;63447;49.446;8.666;2022-12-15T13:59:03;32.28;;;17.13;;
74894;SDS011;63447;49.446;8.666;2022-12-15T14:01:38;30.63;;;17.05;;
74894;SDS011;63447;49.446;8.666;2022-12-15T14:04:19;29.65;;;15.88;;
74894;SDS011;63447;49.446;8.666;2022-12-15T14:06:50;29.92;;;16.17;;
74894;SDS011;63447;49.446;8.666;2022-12-15T14:09:23;32.20;;;16.85;;
74894;SDS011;63447;49.446;8.666;2022-12-15T14:11:51;31.42;;;18.42;;
74894;SDS011;63447;49.446;8.666;2022-12-15T14:14:25;32.40;;;15.82;;
74894;SDS011;63447;49.446;8.666;2022-12-15T14:16:56;31.85;;;17.30;;
74894;SDS011;63447;49.446;8.666;2022-12-15T14:19:24;30.90;;;16.25;;
74894;SDS011;63447;49.446;8.666;2022-12-15T14:21:52;29.63;;;14.95;;
74894;SDS011;63447;49.446;8.666;2022-12-15T14:26:50;33.25;;;16.98;;
74894;SDS011;63447;49.446;8.666;2022-12-15T14:29:19;31.52;;;16.48;;
74894;SDS011;63447;49.446;8.666;2022-12-15T14:34:23;32.20;;;16.60;;
74894;SDS011;63447;49.446;8.666;2022-12-15T14:36:52;33.60;;;16.00;;
74894;SDS011;63447;49.446;8.666;2022-12-15T14:39:25;29.80;;;15.18;;
74894;SDS011;63447;49.446;8.666;2022-12-15T14:42:13;31.85;;;16.30;;
74894;SDS011;63447;49.446;8.666;2022-12-15T14:44:43;32.08;;;15.95;;
74894;SDS011;63447;49.446;8.666;2022-12-15T14:47:18;33.40;;;17.17;;
74894;SDS011;63447;49.446;8.666;2022-12-15T14:49:46;34.92;;;16.27;;
74894;SDS011;63447;49.446;8.666;2022-12-15T14:52:22;33.28;;;16.10;;
74894;SDS011;63447;49.446;8.666;2022-12-15T14:54:56;37.45;;;18.48;;
74894;SDS011;63447;49.446;8.666;2022-12-15T14:57:42;34.38;;;17.33;;
74894;SDS011;63447;49.446;8.666;2022-12-15T15:00:32;36.25;;;18.48;;
74894;SDS011;63447;49.446;8.666;2022-12-15T15:06:32;38.30;;;18.13;;
74894;SDS011;63447;49.446;8.666;2022-12-15T15:08:35;35.88;;;17.63;;
74894;SDS011;63447;49.446;8.666;2022-12-15T15:11:51;34.88;;;18.48;;
74894;SDS011;63447;49.446;8.666;2022-12-15T15:14:02;37.80;;;18.45;;
74894;SDS011;63447;49.446;8.666;2022-12-15T15:16:38;42.60;;;22.02;;
74894;SDS011;63447;49.446;8.666;2022-12-15T15:19:10;39.63;;;19.90;;
74894;SDS011;63447;49.446;8.666;2022-12-15T15:21:44;38.15;;;19.48;;
74894;SDS011;63447;49.446;8.666;2022-12-15T15:26:35;44.97;;;20.40;;
74894;SDS011;63447;49.446;8.666;2022-12-15T15:29:02;38.08;;;19.08;;
74894;SDS011;63447;49.446;8.666;2022-12-15T15:31:35;37.65;;;18.25;;
74894;SDS011;63447;49.446;8.666;2022-12-15T15:34:05;34.33;;;17.83;;
74894;SDS011;63447;49.446;8.666;2022-12-15T15:36:35;29.98;;;17.15;;
74894;SDS011;63447;49.446;8.666;2022-12-15T15:39:02;34.53;;;17.80;;
74894;SDS011;63447;49.446;8.666;2022-12-15T15:41:34;33.40;;;17.33;;
74894;SDS011;63447;49.446;8.666;2022-12-15T15:44:05;31.05;;;15.75;;
74894;SDS011;63447;49.446;8.666;2022-12-15T15:46:40;31.48;;;15.50;;
74894;SDS011;63447;49.446;8.666;2022-12-15T15:49:11;32.13;;;15.95;;
74894;SDS011;63447;49.446;8.666;2022-12-15T15:51:40;31.92;;;16.85;;
74894;SDS011;63447;49.446;8.666;2022-12-15T15:54:06;32.88;;;15.88;;
74894;SDS011;63447;49.446;8.666;2022-12-15T15:56:39;29.90;;;14.60;;
74894;SDS011;63447;49.446;8.666;2022-12-15T15:59:10;31.33;;;14.60;;
74894;SDS011;63447;49.446;8.666;2022-12-15T16:01:36;30.23;;;15.75;;
74894;SDS011;63447;49.446;8.666;2022-12-15T16:04:02;31.43;;;15.97;;
74894;SDS011;63447;49.446;8.666;2022-12-15T16:06:33;29.83;;;14.70;;
74894;SDS011;63447;49.446;8.666;2022-12-15T16:09:00;27.35;;;14.18;;
74894;SDS011;63447;49.446;8.666;2022-12-15T16:11:27;31.50;;;16.02;;
74894;SDS011;63447;49.446;8.666;2022-12-15T16:13:57;29.83;;;15.77;;
74894;SDS011;63447;49.446;8.666;2022-12-15T16:16:23;29.02;;;14.60;;
74894;SDS011;63447;49.446;8.666;2022-12-15T16:18:51;30.40;;;15.27;;
74894;SDS011;63447;49.446;8.666;2022-12-15T16:21:19;28.40;;;14.47;;
74894;SDS011;63447;49.446;8.666;2022-12-15T16:23:49;29.17;;;15.05;;
74894;SDS011;63447;49.446;8.666;2022-12-15T16:26:15;33.67;;;14.98;;
74894;SDS011;63447;49.446;8.666;2022-12-15T16:28:48;29.38;;;14.75;;
74894;SDS011;63447;49.446;8.666;2022-12-15T16:31:34;30.77;;;15.18;;
74894;SDS011;63447;49.446;8.666;2022-12-15T16:34:00;29.02;;;14.95;;
74894;SDS011;63447;49.446;8.666;2022-12-15T16:38:52;26.02;;;12.35;;
74894;SDS011;63447;49.446;8.666;2022-12-15T16:41:18;27.83;;;12.32;;
74894;SDS011;63447;49.446;8.666;2022-12-15T16:43:43;22.80;;;13.20;;
74894;SDS011;63447;49.446;8.666;2022-12-15T16:46:10;24.83;;;13.13;;
74894;SDS011;63447;49.446;8.666;2022-12-15T16:48:36;26.83;;;14.52;;
74894;SDS011;63447;49.446;8.666;2022-12-15T16:51:08;26.98;;;12.95;;
74894;SDS011;63447;49.446;8.666;2022-12-15T16:53:41;27.27;;;14.00;;
74894;SDS011;63447;49.446;8.666;2022-12-15T16:56:07;25.60;;;13.02;;
74894;SDS011;63447;49.446;8.666;2022-12-15T16:58:38;25.42;;;13.57;;
74894;SDS011;63447;49.446;8.666;2022-12-15T17:01:07;27.98;;;14.27;;
74894;SDS011;63447;49.446;8.666;2022-12-15T17:03:36;23.48;;;11.95;;
74894;SDS011;63447;49.446;8.666;2022-12-15T17:06:03;27.88;;;13.82;;
74894;SDS011;63447;49.446;8.666;2022-12-15T17:11:22;29.15;;;14.73;;
74894;SDS011;63447;49.446;8.666;2022-12-15T17:13:49;27.73;;;13.63;;
74894;SDS011;63447;49.446;8.666;2022-12-15T17:16:17;24.58;;;12.77;;
74894;SDS011;63447;49.446;8.666;2022-12-15T17:18:44;25.52;;;13.48;;
74894;SDS011;63447;49.446;8.666;2022-12-15T17:21:13;27.92;;;14.68;;
74894;SDS011;63447;49.446;8.666;2022-12-15T17:23:42;27.02;;;13.70;;
74894;SDS011;63447;49.446;8.666;2022-12-15T17:26:10;27.73;;;14.07;;
74894;SDS011;63447;49.446;8.666;2022-12-15T17:28:42;27.75;;;13.63;;
74894;SDS011;63447;49.446;8.666;2022-12-15T17:31:12;26.07;;;13.13;;
74894;SDS011;63447;49.446;8.666;2022-12-15T17:33:42;24.33;;;13.40;;
74894;SDS011;63447;49.446;8.666;2022-12-15T17:36:13;25.92;;;12.43;;
74894;SDS011;63447;49.446;8.666;2022-12-15T17:38:56;28.17;;;14.02;;
74894;SDS011;63447;49.446;8.666;2022-12-15T17:41:23;24.85;;;12.50;;